KAFO/AFO METAR and TAF weather

Enter ICAO airport designator
Station Type Date Time Source
KAFO METAR 2021/07/29 02:55 UTC NOAA

KAFO 290255Z AUTO 18005KT 10SM BKN100 OVC120 15/13 A3036 RMK AO2


Station Type Date Time Source
KAFO Decoded METAR 2021/07/29 02:55 UTC NOAA

Station name not available
Jul 28, 2021 - 10:55 PM EDT / 2021.07.29 0255 UTC
Wind: from the S (180 degrees) at 6 MPH (5 KT):0
Visibility: 10 mile(s):0
Sky conditions: overcast
Temperature: 59 F (15 C)
Dew Point: 55 F (13 C)
Relative Humidity: 87%
Pressure (altimeter): 30.36 in. Hg (1028 hPa)
ob: KAFO 290255Z AUTO 18005KT 10SM BKN100 OVC120 15/13 A3036 RMK AO2
cycle: 3

Station Type Date Time Source
KAFO TAF UTC NOAA

Error!

Example: see airport list